EWG4MR EDDH-EDDL
Flight info
| Callsign | EWG4MR |
|---|---|
| Flight time | 0h 43m |
| Altitude | 28000 |
| Route | HABFU1G/33 HABFU Y348 MAWEQ Z718 OSNAD M170 HMM T851 HALME HALME1A |
| Aircraft | B738/M-SDE2E3FGHIRWXY/LB1 |
Departure
| Time | 2026-05-04 17:09 |
|---|---|
| Airport | Hamburg Helmut Schmidt Airport (EDDH) |
Arrival
| Time | 2026-05-04 17:52 |
|---|---|
| Airport | Düsseldorf Airport (EDDL) |
| Time | Latitude | Longitude | Altitude | Speed | Heading |
|---|---|---|---|---|---|
| 2026-05-04 16:43 | 53.63293 | 10.00350 | 49 ft | 0 kts | 87° |
| 2026-05-04 17:00 | 53.63292 | 10.00319 | 49 ft | 2 kts | 87° |
| 2026-05-04 17:00 | 53.63290 | 10.00244 | 48 ft | 2 kts | 87° |
| 2026-05-04 17:01 | 53.63297 | 10.00196 | 48 ft | 2 kts | 127° |
| 2026-05-04 17:01 | 53.63321 | 10.00168 | 48 ft | 2 kts | 167° |
| 2026-05-04 17:02 | 53.63333 | 10.00165 | 48 ft | 0 kts | 176° |
| 2026-05-04 17:04 | 53.63326 | 10.00166 | 48 ft | 4 kts | 176° |
| 2026-05-04 17:04 | 53.63204 | 10.00181 | 48 ft | 8 kts | 175° |
| 2026-05-04 17:05 | 53.63079 | 10.00191 | 47 ft | 9 kts | 199° |
| 2026-05-04 17:05 | 53.62970 | 10.00075 | 47 ft | 9 kts | 212° |
| 2026-05-04 17:06 | 53.62896 | 9.99915 | 46 ft | 9 kts | 242° |
| 2026-05-04 17:06 | 53.62864 | 9.99813 | 46 ft | 9 kts | 244° |
| 2026-05-04 17:07 | 53.62894 | 9.99725 | 45 ft | 0 kts | 332° |
| 2026-05-04 17:08 | 53.62948 | 9.99676 | 45 ft | 33 kts | 333° |
| 2026-05-04 17:08 | 53.63408 | 9.99281 | 45 ft | 112 kts | 335° |
| 2026-05-04 17:09 | 53.64307 | 9.98508 | 133 ft | 167 kts | 332° |
| 2026-05-04 17:09 | 53.65333 | 9.97653 | 1026 ft | 166 kts | 334° |
| 2026-05-04 17:09 | 53.66337 | 9.96832 | 1854 ft | 166 kts | 334° |
| 2026-05-04 17:10 | 53.68558 | 9.94876 | 2848 ft | 196 kts | 333° |
| 2026-05-04 17:10 | 53.71183 | 9.89475 | 4763 ft | 221 kts | 274° |
| 2026-05-04 17:11 | 53.71048 | 9.86798 | 5297 ft | 237 kts | 256° |
| 2026-05-04 17:11 | 53.70533 | 9.84128 | 5942 ft | 248 kts | 251° |
| 2026-05-04 17:11 | 53.69334 | 9.78467 | 7443 ft | 262 kts | 252° |
| 2026-05-04 17:12 | 53.68755 | 9.75594 | 8258 ft | 265 kts | 252° |
| 2026-05-04 17:12 | 53.67585 | 9.69650 | 9886 ft | 271 kts | 252° |
| 2026-05-04 17:13 | 53.65630 | 9.60169 | 11526 ft | 306 kts | 245° |
| 2026-05-04 17:14 | 53.60427 | 9.53157 | 13044 ft | 346 kts | 210° |
| 2026-05-04 17:14 | 53.58267 | 9.51306 | 13649 ft | 354 kts | 210° |
| 2026-05-04 17:14 | 53.53795 | 9.47387 | 14732 ft | 372 kts | 211° |
| 2026-05-04 17:15 | 53.51477 | 9.45298 | 15253 ft | 381 kts | 211° |
| 2026-05-04 17:15 | 53.46747 | 9.40992 | 16450 ft | 392 kts | 211° |
| 2026-05-04 17:16 | 53.41956 | 9.36622 | 17799 ft | 398 kts | 211° |
| 2026-05-04 17:16 | 53.34546 | 9.30006 | 19760 ft | 408 kts | 208° |
| 2026-05-04 17:17 | 53.31929 | 9.28178 | 20383 ft | 412 kts | 201° |
| 2026-05-04 17:17 | 53.23453 | 9.24965 | 22476 ft | 416 kts | 193° |
| 2026-05-04 17:18 | 53.20623 | 9.24186 | 23273 ft | 412 kts | 192° |
| 2026-05-04 17:18 | 53.15108 | 9.22691 | 25118 ft | 398 kts | 193° |
| 2026-05-04 17:19 | 53.09723 | 9.21181 | 26825 ft | 385 kts | 194° |
| 2026-05-04 17:19 | 53.04491 | 9.19665 | 27772 ft | 388 kts | 194° |
| 2026-05-04 17:20 | 52.99080 | 9.18058 | 27964 ft | 397 kts | 194° |
| 2026-05-04 17:20 | 52.93806 | 9.15657 | 27964 ft | 391 kts | 205° |
| 2026-05-04 17:20 | 52.91357 | 9.13852 | 27961 ft | 388 kts | 208° |
| 2026-05-04 17:21 | 52.86556 | 9.09682 | 27962 ft | 389 kts | 211° |
| 2026-05-04 17:21 | 52.81804 | 9.05404 | 27964 ft | 389 kts | 211° |
| 2026-05-04 17:22 | 52.79439 | 9.03287 | 27960 ft | 389 kts | 211° |
| 2026-05-04 17:22 | 52.77078 | 9.01189 | 27960 ft | 389 kts | 210° |
| 2026-05-04 17:23 | 52.69887 | 8.94883 | 27960 ft | 391 kts | 210° |
| 2026-05-04 17:23 | 52.67475 | 8.92784 | 27955 ft | 392 kts | 210° |
| 2026-05-04 17:23 | 52.62688 | 8.88639 | 27953 ft | 392 kts | 210° |
| 2026-05-04 17:24 | 52.60251 | 8.86529 | 27945 ft | 391 kts | 210° |
| 2026-05-04 17:24 | 52.53007 | 8.80271 | 27946 ft | 394 kts | 210° |
| 2026-05-04 17:25 | 52.50596 | 8.78191 | 27945 ft | 394 kts | 210° |
| 2026-05-04 17:25 | 52.45726 | 8.74000 | 27946 ft | 393 kts | 210° |
| 2026-05-04 17:26 | 52.40906 | 8.69863 | 27949 ft | 394 kts | 210° |
| 2026-05-04 17:26 | 52.33626 | 8.63637 | 27946 ft | 394 kts | 210° |
| 2026-05-04 17:27 | 52.29089 | 8.58740 | 27947 ft | 393 kts | 224° |
| 2026-05-04 17:27 | 52.25838 | 8.51633 | 27945 ft | 391 kts | 242° |
| 2026-05-04 17:28 | 52.23690 | 8.43807 | 27952 ft | 373 kts | 246° |
| 2026-05-04 17:29 | 52.20810 | 8.32025 | 26650 ft | 371 kts | 245° |
| 2026-05-04 17:29 | 52.16318 | 8.21837 | 24250 ft | 378 kts | 225° |
| 2026-05-04 17:30 | 52.10750 | 8.12666 | 21899 ft | 385 kts | 225° |
| 2026-05-04 17:31 | 52.07014 | 8.06482 | 20725 ft | 379 kts | 225° |
| 2026-05-04 17:31 | 52.01592 | 7.97403 | 19046 ft | 371 kts | 225° |
| 2026-05-04 17:32 | 51.98023 | 7.91408 | 17930 ft | 365 kts | 225° |
| 2026-05-04 17:33 | 51.92797 | 7.82642 | 16278 ft | 357 kts | 226° |
| 2026-05-04 17:33 | 51.91099 | 7.79803 | 15747 ft | 355 kts | 226° |
| 2026-05-04 17:34 | 51.86192 | 7.71261 | 14537 ft | 335 kts | 233° |
| 2026-05-04 17:34 | 51.84934 | 7.68174 | 14210 ft | 328 kts | 240° |
| 2026-05-04 17:35 | 51.82032 | 7.58579 | 13311 ft | 307 kts | 245° |
| 2026-05-04 17:35 | 51.80280 | 7.52484 | 12712 ft | 295 kts | 245° |
| 2026-05-04 17:35 | 51.79401 | 7.49482 | 12401 ft | 290 kts | 245° |
| 2026-05-04 17:36 | 51.78548 | 7.46576 | 12059 ft | 288 kts | 245° |
| 2026-05-04 17:36 | 51.77678 | 7.43632 | 11766 ft | 291 kts | 245° |
| 2026-05-04 17:36 | 51.76807 | 7.40704 | 11503 ft | 291 kts | 245° |
| 2026-05-04 17:36 | 51.75934 | 7.37786 | 11248 ft | 286 kts | 245° |
| 2026-05-04 17:37 | 51.75081 | 7.34939 | 11011 ft | 286 kts | 244° |
| 2026-05-04 17:37 | 51.74204 | 7.32027 | 10765 ft | 286 kts | 244° |
| 2026-05-04 17:37 | 51.73336 | 7.29143 | 10512 ft | 283 kts | 244° |
| 2026-05-04 17:37 | 51.72493 | 7.26338 | 10263 ft | 277 kts | 244° |
| 2026-05-04 17:38 | 51.71654 | 7.23535 | 10021 ft | 275 kts | 244° |
| 2026-05-04 17:38 | 51.70831 | 7.20782 | 9945 ft | 272 kts | 244° |
| 2026-05-04 17:38 | 51.69989 | 7.18032 | 9942 ft | 276 kts | 243° |
| 2026-05-04 17:38 | 51.69140 | 7.15317 | 9810 ft | 270 kts | 243° |
| 2026-05-04 17:39 | 51.67441 | 7.09937 | 9048 ft | 270 kts | 243° |
| 2026-05-04 17:39 | 51.66606 | 7.07293 | 8943 ft | 263 kts | 243° |
| 2026-05-04 17:39 | 51.65762 | 7.04619 | 8949 ft | 269 kts | 243° |
| 2026-05-04 17:40 | 51.64936 | 7.02004 | 8948 ft | 255 kts | 243° |
| 2026-05-04 17:40 | 51.64150 | 6.99514 | 8955 ft | 243 kts | 243° |
| 2026-05-04 17:40 | 51.63390 | 6.97108 | 8957 ft | 241 kts | 243° |
| 2026-05-04 17:40 | 51.62632 | 6.94708 | 8956 ft | 242 kts | 243° |
| 2026-05-04 17:41 | 51.61847 | 6.92301 | 8948 ft | 242 kts | 237° |
| 2026-05-04 17:41 | 51.60674 | 6.90428 | 8960 ft | 244 kts | 212° |
| 2026-05-04 17:41 | 51.59153 | 6.89224 | 8959 ft | 243 kts | 204° |
| 2026-05-04 17:41 | 51.57588 | 6.88184 | 8955 ft | 243 kts | 203° |
| 2026-05-04 17:42 | 51.56025 | 6.87162 | 8952 ft | 243 kts | 203° |
| 2026-05-04 17:42 | 51.54457 | 6.86137 | 8956 ft | 243 kts | 203° |
| 2026-05-04 17:42 | 51.52901 | 6.85127 | 8954 ft | 244 kts | 203° |
| 2026-05-04 17:42 | 51.51314 | 6.84101 | 8953 ft | 244 kts | 203° |
| 2026-05-04 17:43 | 51.49742 | 6.83089 | 8953 ft | 243 kts | 203° |
| 2026-05-04 17:43 | 51.48179 | 6.82084 | 8870 ft | 239 kts | 203° |
| 2026-05-04 17:43 | 51.46656 | 6.81104 | 8575 ft | 238 kts | 203° |
| 2026-05-04 17:43 | 51.45118 | 6.80098 | 8272 ft | 236 kts | 202° |
| 2026-05-04 17:44 | 51.43520 | 6.79591 | 7902 ft | 238 kts | 176° |
| 2026-05-04 17:44 | 51.41962 | 6.80417 | 7602 ft | 240 kts | 147° |
| 2026-05-04 17:44 | 51.40870 | 6.82412 | 7256 ft | 246 kts | 117° |
| 2026-05-04 17:44 | 51.40533 | 6.85107 | 6893 ft | 254 kts | 88° |
| 2026-05-04 17:45 | 51.41080 | 6.87800 | 6566 ft | 258 kts | 58° |
| 2026-05-04 17:45 | 51.42185 | 6.90044 | 6270 ft | 257 kts | 49° |
| 2026-05-04 17:45 | 51.43385 | 6.92156 | 5979 ft | 256 kts | 48° |
| 2026-05-04 17:45 | 51.44584 | 6.94241 | 5725 ft | 253 kts | 48° |
| 2026-05-04 17:46 | 51.45747 | 6.96277 | 5600 ft | 244 kts | 49° |
| 2026-05-04 17:46 | 51.46798 | 6.98364 | 5358 ft | 238 kts | 63° |
| 2026-05-04 17:46 | 51.47217 | 7.00827 | 5124 ft | 229 kts | 94° |
| 2026-05-04 17:46 | 51.46790 | 7.03178 | 4902 ft | 217 kts | 128° |
| 2026-05-04 17:47 | 51.45656 | 7.04690 | 4624 ft | 209 kts | 162° |
| 2026-05-04 17:47 | 51.44260 | 7.04914 | 4366 ft | 203 kts | 189° |
| 2026-05-04 17:47 | 51.42865 | 7.04454 | 4255 ft | 206 kts | 195° |
| 2026-05-04 17:47 | 51.41582 | 7.03505 | 4135 ft | 205 kts | 219° |
| 2026-05-04 17:48 | 51.40608 | 7.01827 | 3875 ft | 209 kts | 231° |
| 2026-05-04 17:48 | 51.39742 | 6.99987 | 3536 ft | 207 kts | 232° |
| 2026-05-04 17:48 | 51.38881 | 6.98167 | 3251 ft | 204 kts | 232° |
| 2026-05-04 17:48 | 51.38025 | 6.96369 | 2964 ft | 201 kts | 232° |
| 2026-05-04 17:49 | 51.37196 | 6.94618 | 2690 ft | 198 kts | 232° |
| 2026-05-04 17:49 | 51.36371 | 6.92871 | 2397 ft | 193 kts | 232° |
| 2026-05-04 17:49 | 51.35573 | 6.91188 | 2174 ft | 185 kts | 232° |
| 2026-05-04 17:49 | 51.34803 | 6.89574 | 1896 ft | 184 kts | 232° |
| 2026-05-04 17:50 | 51.34042 | 6.87965 | 1651 ft | 181 kts | 232° |
| 2026-05-04 17:50 | 51.33297 | 6.86400 | 1406 ft | 169 kts | 232° |
| 2026-05-04 17:50 | 51.32628 | 6.84991 | 1243 ft | 153 kts | 232° |
| 2026-05-04 17:50 | 51.31985 | 6.83639 | 1015 ft | 147 kts | 232° |
| 2026-05-04 17:51 | 51.31370 | 6.82348 | 800 ft | 147 kts | 232° |
| 2026-05-04 17:51 | 51.30753 | 6.81052 | 603 ft | 147 kts | 231° |
| 2026-05-04 17:51 | 51.30133 | 6.79748 | 398 ft | 147 kts | 231° |
| 2026-05-04 17:51 | 51.29517 | 6.78460 | 230 ft | 146 kts | 231° |
| 2026-05-04 17:52 | 51.28919 | 6.77198 | 129 ft | 129 kts | 231° |
| 2026-05-04 17:52 | 51.28528 | 6.76388 | 127 ft | 58 kts | 231° |
| 2026-05-04 17:52 | 51.28348 | 6.76066 | 127 ft | 23 kts | 207° |
| 2026-05-04 17:52 | 51.28263 | 6.76045 | 127 ft | 0 kts | 174° |
| 2026-05-04 17:53 | 51.28252 | 6.76049 | 127 ft | 7 kts | 165° |
| 2026-05-04 17:53 | 51.28244 | 6.76052 | 127 ft | 0 kts | 164° |
| 2026-05-04 17:54 | 51.28243 | 6.76053 | 127 ft | 1 kts | 164° |
| 2026-05-04 17:54 | 51.28213 | 6.76070 | 127 ft | 4 kts | 152° |
| 2026-05-04 17:54 | 51.28191 | 6.76130 | 128 ft | 9 kts | 86° |
| 2026-05-04 17:55 | 51.28202 | 6.76222 | 128 ft | 8 kts | 118° |
| 2026-05-04 17:55 | 51.28160 | 6.76285 | 128 ft | 8 kts | 138° |
| 2026-05-04 17:55 | 51.28128 | 6.76360 | 128 ft | 7 kts | 120° |
| 2026-05-04 17:55 | 51.28086 | 6.76425 | 128 ft | 8 kts | 148° |
| 2026-05-04 17:56 | 51.28039 | 6.76441 | 128 ft | 6 kts | 207° |
| 2026-05-04 17:56 | 51.28016 | 6.76422 | 128 ft | 0 kts | 207° |